Time;durP1;ratioP1;P1;durP2;ratioP2;P2;SDS_P1;SDS_P2;PMS_P1;PMS_P2;Temp;Humidity;BMP_temperature;BMP_pressure;BME280_temperature;BME280_humidity;BME280_pressure;Samples;Min_cycle;Max_cycle;Signal;HPM_P1;HPM_P2
2020/12/11 00:02:06;;;;;;;44.40;15.73;;;2.90;99.90;;;;;;5057136;28;20549;-79
2020/12/11 00:04:32;;;;;;;38.33;14.83;;;2.90;99.90;;;;;;5057036;28;20195;-82
2020/12/11 00:06:59;;;;;;;35.77;13.50;;;2.90;99.90;;;;;;5070675;28;20176;-82
2020/12/11 00:09:25;;;;;;;41.23;14.00;;;2.90;99.90;;;;;;5037209;28;20182;-82
2020/12/11 00:11:51;;;;;;;33.60;12.73;;;2.90;99.90;;;;;;5037245;28;20206;-82
2020/12/11 00:14:17;;;;;;;31.57;12.87;;;2.90;99.90;;;;;;5037269;28;20602;-80
2020/12/11 00:16:43;;;;;;;35.47;13.40;;;2.90;99.90;;;;;;5037054;28;20191;-82
2020/12/11 00:19:09;;;;;;;36.57;13.37;;;2.90;99.90;;;;;;5055367;28;20567;-81
2020/12/11 00:21:39;;;;;;;32.47;12.47;;;3.00;99.90;;;;;;5036592;28;20176;-82
2020/12/11 00:24:05;;;;;;;31.57;12.67;;;3.00;99.90;;;;;;5037041;28;20221;-80
2020/12/11 00:26:30;;;;;;;37.50;13.87;;;2.90;99.90;;;;;;5054763;28;20175;-80
2020/12/11 00:28:56;;;;;;;34.70;13.20;;;2.90;99.90;;;;;;5037143;28;20175;-83
2020/12/11 00:31:25;;;;;;;34.20;13.90;;;2.80;99.90;;;;;;5037138;28;20172;-81
2020/12/11 00:33:51;;;;;;;33.87;12.70;;;2.90;99.90;;;;;;5055635;28;20203;-82
2020/12/11 00:36:17;;;;;;;38.63;13.73;;;3.00;99.90;;;;;;5054848;28;20230;-82
2020/12/11 00:38:43;;;;;;;29.20;12.23;;;2.90;99.90;;;;;;5037106;28;20668;-82
2020/12/11 00:41:08;;;;;;;33.53;13.43;;;2.90;99.90;;;;;;5037130;28;20172;-84
2020/12/11 00:43:35;;;;;;;31.77;12.17;;;3.00;99.90;;;;;;5037226;28;20175;-81
2020/12/11 00:46:00;;;;;;;30.03;12.23;;;3.00;99.90;;;;;;5036589;28;20282;-80
2020/12/11 00:48:26;;;;;;;28.87;12.23;;;3.10;99.90;;;;;;5037160;28;20222;-82
2020/12/11 00:50:51;;;;;;;31.40;11.30;;;3.00;99.90;;;;;;5037444;28;20172;-83
2020/12/11 00:53:17;;;;;;;35.43;13.37;;;3.00;99.90;;;;;;5036909;28;20176;-81
2020/12/11 00:55:42;;;;;;;32.87;13.00;;;3.00;99.90;;;;;;5037346;28;20234;-83
2020/12/11 00:58:10;;;;;;;33.57;12.97;;;3.00;99.90;;;;;;5036838;28;20564;-82
2020/12/11 01:00:36;;;;;;;34.87;12.43;;;3.00;99.90;;;;;;5037124;28;20175;-80
2020/12/11 01:03:01;;;;;;;39.40;13.67;;;3.00;99.90;;;;;;5036983;28;20199;-83
2020/12/11 01:05:27;;;;;;;35.53;12.47;;;3.00;99.90;;;;;;5036298;28;20196;-81
2020/12/11 01:07:53;;;;;;;33.20;12.67;;;2.90;99.90;;;;;;5035753;28;20194;-83
2020/12/11 01:10:18;;;;;;;29.37;11.63;;;3.00;99.90;;;;;;5036732;28;20226;-80
2020/12/11 01:12:43;;;;;;;29.23;13.33;;;3.00;99.90;;;;;;5037046;28;20190;-80
2020/12/11 01:15:09;;;;;;;41.10;13.97;;;3.00;99.90;;;;;;5036660;28;20211;-80
2020/12/11 01:17:35;;;;;;;32.17;11.63;;;2.90;99.90;;;;;;5036323;28;20283;-81
2020/12/11 01:20:00;;;;;;;35.63;13.93;;;2.90;99.90;;;;;;5036223;28;20167;-80
2020/12/11 01:22:26;;;;;;;36.33;12.70;;;2.90;99.90;;;;;;5036333;28;20172;-82
2020/12/11 01:24:51;;;;;;;29.00;11.80;;;2.90;99.90;;;;;;5036360;28;20198;-82
2020/12/11 01:27:17;;;;;;;34.83;13.57;;;2.80;99.90;;;;;;5036147;28;20540;-82
2020/12/11 01:29:43;;;;;;;29.17;11.60;;;2.80;99.90;;;;;;5036824;28;20191;-83
2020/12/11 01:32:08;;;;;;;37.23;13.43;;;2.80;99.90;;;;;;5036412;28;20642;-83
2020/12/11 01:34:34;;;;;;;40.17;13.87;;;2.80;99.90;;;;;;5055266;28;20210;-81
2020/12/11 01:37:04;;;;;;;33.53;12.57;;;2.80;99.90;;;;;;5040259;28;20186;-82
2020/12/11 01:39:30;;;;;;;39.63;14.40;;;2.80;99.90;;;;;;5039815;28;20214;-82
2020/12/11 01:41:56;;;;;;;39.73;14.37;;;2.80;99.90;;;;;;5040363;28;20176;-80
2020/12/11 01:44:21;;;;;;;36.87;14.00;;;2.70;99.90;;;;;;5040417;28;20628;-81
2020/12/11 01:46:48;;;;;;;35.10;12.60;;;2.70;99.90;;;;;;5058182;28;20168;-82
2020/12/11 01:49:14;;;;;;;37.70;14.43;;;2.80;99.90;;;;;;5040018;28;20590;-80
2020/12/11 01:51:40;;;;;;;41.77;14.63;;;2.80;99.90;;;;;;5058159;28;20176;-80
2020/12/11 01:54:06;;;;;;;41.93;14.57;;;2.80;99.90;;;;;;5039813;28;20171;-82
2020/12/11 01:56:40;;;;;;;33.23;12.87;;;2.70;99.90;;;;;;5039647;28;20519;-81
2020/12/11 01:59:12;;;;;;;34.27;12.80;;;2.70;99.90;;;;;;5039585;28;20230;-83
2020/12/11 02:01:37;;;;;;;30.50;12.03;;;2.80;99.90;;;;;;5057975;28;20180;-83
2020/12/11 02:04:04;;;;;;;36.33;13.60;;;2.80;99.90;;;;;;5057765;28;20172;-83
2020/12/11 02:06:30;;;;;;;35.00;12.00;;;2.80;99.90;;;;;;5039450;28;20660;-80
2020/12/11 02:08:56;;;;;;;33.17;12.40;;;2.80;99.90;;;;;;5057752;28;20250;-80
2020/12/11 02:11:23;;;;;;;36.93;13.63;;;2.80;99.90;;;;;;5040062;28;20628;-80
2020/12/11 02:13:49;;;;;;;43.50;14.90;;;2.80;99.90;;;;;;5039545;28;20221;-81
2020/12/11 02:16:20;;;;;;;32.83;12.07;;;2.80;99.90;;;;;;5057214;28;20215;-80
2020/12/11 02:18:45;;;;;;;41.03;14.20;;;2.80;99.90;;;;;;5039299;28;20192;-82
2020/12/11 02:21:11;;;;;;;39.93;14.30;;;2.80;99.90;;;;;;5039650;28;20182;-82
2020/12/11 02:23:36;;;;;;;38.47;13.43;;;2.70;99.90;;;;;;5038777;28;20510;-82
2020/12/11 02:26:02;;;;;;;42.50;13.73;;;2.80;99.90;;;;;;5038996;28;20681;-82
2020/12/11 02:28:32;;;;;;;39.53;13.57;;;2.70;99.90;;;;;;5039535;28;20176;-80
2020/12/11 02:30:58;;;;;;;41.17;13.27;;;2.70;99.90;;;;;;5039820;28;20198;-79
2020/12/11 02:33:24;;;;;;;37.90;13.17;;;2.70;99.90;;;;;;5039078;28;20270;-83
2020/12/11 02:35:49;;;;;;;36.77;13.27;;;2.70;99.90;;;;;;5039313;28;20286;-81
2020/12/11 02:38:15;;;;;;;44.77;13.40;;;2.60;99.90;;;;;;5039205;28;20198;-80
2020/12/11 02:40:48;;;;;;;42.63;15.77;;;2.60;99.90;;;;;;5057457;28;20186;-83
2020/12/11 02:43:14;;;;;;;36.30;12.83;;;2.60;99.90;;;;;;5039702;28;20171;-81
2020/12/11 02:45:40;;;;;;;36.83;13.60;;;2.60;99.90;;;;;;5038687;28;20195;-83
2020/12/11 02:48:06;;;;;;;39.07;13.90;;;2.60;99.90;;;;;;5038606;28;20280;-83
2020/12/11 02:50:31;;;;;;;50.27;16.27;;;2.70;99.90;;;;;;5039201;28;20183;-83
2020/12/11 02:52:57;;;;;;;44.20;13.93;;;2.70;99.90;;;;;;5039061;28;20186;-81
2020/12/11 02:55:22;;;;;;;42.17;15.03;;;2.60;99.90;;;;;;5038514;28;20196;-82
2020/12/11 02:57:48;;;;;;;49.57;16.80;;;2.60;99.90;;;;;;5038005;28;20183;-83
2020/12/11 03:00:13;;;;;;;44.23;15.23;;;2.60;99.90;;;;;;5056816;28;20178;-83
2020/12/11 03:02:39;;;;;;;37.67;15.57;;;2.70;99.90;;;;;;5038170;28;20703;-84
2020/12/11 03:05:04;;;;;;;42.00;14.03;;;2.70;99.90;;;;;;5038893;28;20194;-81
2020/12/11 03:07:30;;;;;;;46.10;14.80;;;2.60;99.90;;;;;;5045567;28;20629;-83
2020/12/11 03:09:55;;;;;;;40.63;14.93;;;2.60;99.90;;;;;;5058364;28;20178;-81
2020/12/11 03:12:20;;;;;;;40.60;14.53;;;2.60;99.90;;;;;;5076381;28;20178;-81
2020/12/11 03:14:46;;;;;;;41.90;15.33;;;2.50;99.90;;;;;;5057895;28;20233;-82
2020/12/11 03:17:11;;;;;;;47.13;15.90;;;2.60;99.90;;;;;;5058068;28;20210;-80
2020/12/11 03:19:37;;;;;;;43.80;15.27;;;2.50;99.90;;;;;;5057758;28;20297;-82
2020/12/11 03:22:02;;;;;;;40.17;15.00;;;2.50;99.90;;;;;;5057765;28;20262;-81
2020/12/11 03:24:28;;;;;;;40.90;14.43;;;2.50;99.90;;;;;;5058044;28;20191;-83
2020/12/11 03:26:53;;;;;;;40.40;13.77;;;2.60;99.90;;;;;;5057684;28;20198;-83
2020/12/11 03:29:19;;;;;;;47.07;15.17;;;2.60;99.90;;;;;;5057668;28;20591;-83
2020/12/11 03:31:44;;;;;;;43.13;15.00;;;2.60;99.90;;;;;;5057364;28;20195;-83
2020/12/11 03:34:10;;;;;;;41.23;13.37;;;2.60;99.90;;;;;;5057845;28;20213;-81
2020/12/11 03:36:35;;;;;;;40.13;14.47;;;2.60;99.90;;;;;;5057521;28;20659;-81
2020/12/11 03:39:01;;;;;;;40.50;14.00;;;2.60;99.90;;;;;;5057669;28;20207;-84
2020/12/11 03:41:26;;;;;;;38.90;14.17;;;2.50;99.90;;;;;;5057610;28;20544;-84
2020/12/11 03:43:52;;;;;;;48.20;15.87;;;2.50;99.90;;;;;;5057553;28;20175;-80
2020/12/11 03:46:19;;;;;;;41.13;15.10;;;2.60;99.90;;;;;;5057193;28;20199;-82
2020/12/11 03:48:46;;;;;;;42.47;14.60;;;2.50;99.90;;;;;;5075712;28;20376;-81
2020/12/11 03:51:16;;;;;;;44.17;15.77;;;2.60;99.90;;;;;;5075541;28;20197;-80
2020/12/11 03:53:41;;;;;;;36.67;13.67;;;2.50;99.90;;;;;;5076023;28;20552;-80
2020/12/11 03:56:06;;;;;;;34.93;13.40;;;2.50;99.90;;;;;;5057115;28;20194;-80
2020/12/11 03:58:32;;;;;;;44.90;15.07;;;2.50;99.90;;;;;;5056815;28;20199;-83
2020/12/11 04:00:57;;;;;;;42.70;14.23;;;2.50;99.90;;;;;;5057796;28;20515;-82
2020/12/11 04:03:23;;;;;;;35.80;12.83;;;2.60;99.90;;;;;;5057358;28;20182;-83
2020/12/11 04:05:48;;;;;;;44.63;14.60;;;2.60;99.90;;;;;;5057362;28;20199;-81
2020/12/11 04:08:14;;;;;;;30.47;11.77;;;2.60;99.90;;;;;;5042611;28;20187;-79
2020/12/11 04:10:39;;;;;;;40.00;13.00;;;2.70;99.90;;;;;;5055296;28;20274;-81
2020/12/11 04:13:05;;;;;;;40.33;14.00;;;2.70;99.90;;;;;;5055702;28;20207;-79
2020/12/11 04:15:30;;;;;;;36.47;12.57;;;2.70;99.90;;;;;;5036817;28;20226;-81
2020/12/11 04:17:56;;;;;;;35.70;12.97;;;2.70;99.90;;;;;;5037105;28;20207;-80
2020/12/11 04:20:21;;;;;;;31.30;11.03;;;2.60;99.90;;;;;;5037275;28;20184;-81
2020/12/11 04:22:47;;;;;;;33.80;12.40;;;2.70;99.90;;;;;;5039851;28;20172;-79
2020/12/11 04:25:12;;;;;;;32.30;11.67;;;2.70;99.90;;;;;;5055126;28;20804;-81
2020/12/11 04:27:38;;;;;;;31.10;11.70;;;2.60;99.90;;;;;;5046940;28;20210;-83
2020/12/11 04:30:03;;;;;;;34.60;12.37;;;2.60;99.90;;;;;;5050810;28;20174;-82
2020/12/11 04:32:29;;;;;;;34.07;11.63;;;2.60;99.90;;;;;;5041579;28;20176;-83
2020/12/11 04:34:54;;;;;;;38.97;13.53;;;2.60;99.90;;;;;;5054380;28;20199;-80
2020/12/11 04:37:20;;;;;;;31.27;12.57;;;2.50;99.90;;;;;;5036093;28;20183;-79
2020/12/11 04:39:45;;;;;;;29.27;11.43;;;2.60;99.90;;;;;;5037042;28;20259;-83
2020/12/11 04:42:11;;;;;;;29.67;11.33;;;2.60;99.90;;;;;;5036036;28;20187;-82
2020/12/11 04:44:38;;;;;;;31.07;11.93;;;2.50;99.90;;;;;;5053968;28;20205;-80
2020/12/11 04:47:05;;;;;;;32.37;11.80;;;2.50;99.90;;;;;;5036247;28;20187;-82
2020/12/11 04:49:34;;;;;;;33.37;11.57;;;2.50;99.90;;;;;;5036124;28;20187;-82
2020/12/11 04:52:04;;;;;;;34.07;11.93;;;2.50;99.90;;;;;;5036881;28;20641;-81
2020/12/11 04:54:37;;;;;;;32.27;11.77;;;2.50;99.90;;;;;;5054312;28;20223;-80
2020/12/11 04:57:07;;;;;;;25.97;10.53;;;2.50;99.90;;;;;;5036277;28;20190;-80
2020/12/11 04:59:33;;;;;;;31.10;10.87;;;2.50;99.90;;;;;;5054793;28;20699;-80
2020/12/11 05:02:00;;;;;;;35.97;12.70;;;2.60;99.90;;;;;;5036560;28;20175;-84
2020/12/11 05:04:26;;;;;;;31.20;11.37;;;2.60;99.90;;;;;;5037659;28;20237;-83
2020/12/11 05:06:51;;;;;;;32.70;12.30;;;2.60;99.90;;;;;;5036810;28;20221;-82
2020/12/11 05:09:20;;;;;;;39.47;12.97;;;2.60;99.90;;;;;;5036910;28;20171;-80
2020/12/11 05:11:47;;;;;;;30.60;11.03;;;2.60;99.90;;;;;;5059017;28;20182;-83
2020/12/11 05:14:18;;;;;;;30.27;11.27;;;2.60;99.90;;;;;;5050877;28;20210;-80
2020/12/11 05:16:54;;;;;;;29.87;11.03;;;2.60;99.90;;;;;;5040838;28;20740;-82
2020/12/11 05:19:20;;;;;;;29.30;11.70;;;2.60;99.90;;;;;;5040832;28;20278;-82
2020/12/11 05:21:45;;;;;;;33.70;13.00;;;2.70;99.90;;;;;;5040935;28;20255;-81
2020/12/11 05:24:11;;;;;;;36.80;12.37;;;2.60;99.90;;;;;;5071291;28;20728;-81
2020/12/11 05:26:37;;;;;;;32.67;12.37;;;2.60;99.90;;;;;;5060310;28;20192;-83
2020/12/11 05:29:03;;;;;;;34.10;12.17;;;2.50;99.90;;;;;;5055759;28;20213;-84
2020/12/11 05:31:29;;;;;;;27.27;11.53;;;2.60;99.90;;;;;;5058117;28;20172;-80
2020/12/11 05:34:01;;;;;;;29.33;10.93;;;2.60;99.90;;;;;;5060733;28;20548;-80
2020/12/11 05:36:27;;;;;;;28.73;10.80;;;2.60;99.90;;;;;;5039026;28;20270;-80
2020/12/11 05:38:52;;;;;;;36.13;12.47;;;2.60;99.90;;;;;;5038328;28;20345;-79
2020/12/11 05:41:34;;;;;;;35.60;11.50;;;2.60;99.90;;;;;;5038883;28;20199;-79
2020/12/11 05:44:00;;;;;;;34.67;11.80;;;2.50;99.90;;;;;;5039148;28;20270;-80
2020/12/11 05:46:32;;;;;;;29.07;10.50;;;2.50;99.90;;;;;;5038693;28;20280;-80
2020/12/11 05:48:58;;;;;;;31.87;11.27;;;2.60;99.90;;;;;;5038728;28;20222;-79
2020/12/11 05:51:33;;;;;;;34.10;13.60;;;2.60;99.90;;;;;;5038941;28;20711;-82
2020/12/11 05:54:04;;;;;;;30.80;12.67;;;2.50;99.90;;;;;;5039126;28;20618;-79
2020/12/11 05:56:31;;;;;;;27.47;11.57;;;2.50;99.90;;;;;;5052219;28;20190;-80
2020/12/11 05:59:03;;;;;;;35.33;12.87;;;2.50;99.90;;;;;;5076698;28;20197;-78
2020/12/11 06:01:28;;;;;;;27.03;11.40;;;2.40;99.90;;;;;;5076336;28;20242;-82
2020/12/11 06:03:54;;;;;;;34.10;11.50;;;2.50;99.90;;;;;;5076595;28;20199;-79
2020/12/11 06:06:24;;;;;;;38.07;13.53;;;2.50;99.90;;;;;;5042340;28;20665;-80
2020/12/11 06:08:52;;;;;;;33.90;12.60;;;2.50;99.90;;;;;;5041210;28;20649;-79
2020/12/11 06:11:22;;;;;;;32.20;12.73;;;2.50;99.90;;;;;;5048432;28;20258;-78
2020/12/11 06:13:50;;;;;;;38.37;12.60;;;2.50;99.90;;;;;;5038605;28;20183;-79
2020/12/11 06:16:18;;;;;;;31.97;12.57;;;2.40;99.90;;;;;;5058969;28;20307;-78
2020/12/11 06:18:45;;;;;;;35.83;13.70;;;2.50;99.90;;;;;;5038725;28;20567;-80
2020/12/11 06:21:15;;;;;;;35.97;13.20;;;2.40;99.90;;;;;;5055492;28;20172;-79
2020/12/11 06:23:40;;;;;;;34.07;14.10;;;2.30;99.90;;;;;;5042667;28;20193;-79
2020/12/11 06:26:06;;;;;;;33.20;13.37;;;2.40;99.90;;;;;;5044607;28;20216;-80
2020/12/11 06:28:35;;;;;;;38.90;13.63;;;2.40;99.90;;;;;;5038060;28;20188;-79
2020/12/11 06:31:02;;;;;;;36.50;13.23;;;2.50;99.90;;;;;;5050615;28;20281;-81
2020/12/11 06:33:32;;;;;;;39.83;12.97;;;2.50;99.90;;;;;;5057652;28;20278;-80
2020/12/11 06:35:59;;;;;;;36.10;12.83;;;2.50;99.90;;;;;;5051405;28;20195;-81
2020/12/11 06:38:41;;;;;;;41.23;13.87;;;2.40;99.90;;;;;;5045662;28;20194;-81
2020/12/11 06:41:07;;;;;;;35.50;12.47;;;2.50;99.90;;;;;;5046779;28;20166;-81
2020/12/11 06:43:37;;;;;;;36.90;12.93;;;2.50;99.90;;;;;;5067675;28;20310;-81
2020/12/11 06:46:15;;;;;;;34.77;12.50;;;2.50;99.90;;;;;;5037705;28;20806;-81
2020/12/11 06:49:19;;;;;;;33.50;14.00;;;2.40;99.90;;;;;;5040882;28;20179;-81
2020/12/11 06:51:45;;;;;;;33.03;12.37;;;2.50;99.90;;;;;;5037378;28;20190;-80
2020/12/11 06:54:20;;;;;;;31.80;12.67;;;2.40;99.90;;;;;;5043862;28;20653;-81
2020/12/11 06:56:56;;;;;;;35.73;13.23;;;2.50;99.90;;;;;;5046808;28;20189;-82
2020/12/11 06:59:39;;;;;;;30.83;11.20;;;2.50;99.90;;;;;;5054970;28;20271;-81
2020/12/11 07:02:08;;;;;;;34.13;12.70;;;2.50;99.90;;;;;;5036893;28;20182;-81
2020/12/11 07:04:51;;;;;;;26.70;11.50;;;2.50;99.90;;;;;;5038111;28;20213;-81
2020/12/11 07:07:19;;;;;;;37.57;12.63;;;2.60;99.90;;;;;;5048924;28;20731;-80
2020/12/11 07:09:47;;;;;;;35.97;12.03;;;2.50;99.90;;;;;;5042128;28;20183;-81
2020/12/11 07:12:16;;;;;;;31.83;12.63;;;2.50;99.90;;;;;;5048732;28;20282;-81
2020/12/11 07:14:42;;;;;;;36.07;11.97;;;2.50;99.90;;;;;;5037211;28;20572;-81
2020/12/11 07:17:07;;;;;;;35.67;11.97;;;2.50;99.90;;;;;;5047437;28;20228;-80
2020/12/11 07:19:43;;;;;;;32.97;12.93;;;2.60;99.90;;;;;;5061462;28;20191;-80
2020/12/11 07:22:09;;;;;;;34.07;11.77;;;2.50;99.90;;;;;;5037561;28;20266;-81
2020/12/11 07:24:35;;;;;;;27.40;11.10;;;2.50;99.90;;;;;;5052641;28;20317;-81
2020/12/11 07:27:05;;;;;;;35.43;12.17;;;2.50;99.90;;;;;;5047372;28;20206;-79
2020/12/11 07:29:32;;;;;;;32.30;11.50;;;2.40;99.90;;;;;;5049930;28;20191;-80
2020/12/11 07:31:58;;;;;;;30.20;11.57;;;2.50;99.90;;;;;;5047636;28;20175;-79
2020/12/11 07:34:26;;;;;;;28.80;10.73;;;2.60;99.90;;;;;;5039351;28;20211;-80
2020/12/11 07:36:54;;;;;;;32.30;12.37;;;2.50;99.90;;;;;;5054391;28;20293;-82
2020/12/11 07:39:30;;;;;;;30.97;12.13;;;2.50;99.90;;;;;;5049999;28;20661;-80
2020/12/11 07:42:00;;;;;;;31.33;11.20;;;2.50;99.90;;;;;;5036686;28;20261;-80
2020/12/11 07:44:28;;;;;;;32.50;12.70;;;2.50;99.90;;;;;;5067945;28;20753;-80
2020/12/11 07:47:15;;;;;;;34.13;12.53;;;2.50;99.90;;;;;;5049651;28;20555;-81
2020/12/11 07:49:45;;;;;;;34.23;11.37;;;2.50;99.90;;;;;;5046086;28;20190;-80
2020/12/11 07:52:12;;;;;;;25.13;10.50;;;2.50;99.90;;;;;;5061099;28;20175;-80
2020/12/11 07:54:40;;;;;;;32.90;11.63;;;2.50;99.90;;;;;;5045761;28;20218;-81
2020/12/11 07:57:17;;;;;;;26.97;10.60;;;2.50;99.90;;;;;;5039837;28;20189;-80
2020/12/11 07:59:59;;;;;;;26.80;10.93;;;2.50;99.90;;;;;;5043736;28;20215;-79
2020/12/11 08:02:26;;;;;;;35.13;12.03;;;2.50;99.90;;;;;;5044089;28;20174;-80
2020/12/11 08:04:52;;;;;;;29.47;12.00;;;2.50;99.90;;;;;;5059516;28;20249;-81
2020/12/11 08:07:29;;;;;;;27.93;11.13;;;2.50;99.90;;;;;;5043723;28;20178;-80
2020/12/11 08:10:12;;;;;;;31.37;11.73;;;2.60;99.90;;;;;;5042600;28;20245;-80
2020/12/11 08:12:39;;;;;;;33.47;12.23;;;2.50;99.90;;;;;;5055847;28;20159;-81
2020/12/11 08:15:06;;;;;;;30.97;11.73;;;2.50;99.90;;;;;;5037516;28;20215;-81
2020/12/11 08:17:32;;;;;;;33.67;13.33;;;2.50;99.90;;;;;;5035887;28;20184;-80
2020/12/11 08:20:06;;;;;;;27.77;11.37;;;2.50;99.90;;;;;;5036021;28;20201;-81
2020/12/11 08:22:34;;;;;;;30.33;12.17;;;2.50;99.90;;;;;;5036496;28;20564;-81
2020/12/11 08:25:19;;;;;;;29.13;12.17;;;2.40;99.90;;;;;;5038859;28;20199;-82
2020/12/11 08:27:45;;;;;;;32.00;11.97;;;2.50;99.90;;;;;;5051492;28;20228;-80
2020/12/11 08:30:13;;;;;;;33.83;12.33;;;2.50;99.90;;;;;;5064309;28;20184;-80
2020/12/11 08:32:40;;;;;;;30.63;12.50;;;2.50;99.90;;;;;;5049287;28;20183;-81
2020/12/11 08:35:20;;;;;;;27.37;10.70;;;2.50;99.90;;;;;;5045079;28;20285;-80
2020/12/11 08:37:56;;;;;;;26.10;11.80;;;2.50;99.90;;;;;;5042059;28;20204;-81
2020/12/11 08:40:23;;;;;;;29.70;10.80;;;2.50;99.90;;;;;;5042667;28;20183;-80
2020/12/11 08:49:15;;;;;;;31.87;11.70;;;2.60;99.90;;;;;;5067374;28;20204;-80
2020/12/11 08:51:41;;;;;;;27.00;10.77;;;2.70;99.90;;;;;;5048174;28;20193;-82
2020/12/11 08:54:08;;;;;;;23.87;10.27;;;2.60;99.90;;;;;;5041871;28;20183;-80
2020/12/11 08:56:34;;;;;;;23.67;9.47;;;2.70;99.90;;;;;;5042328;28;20179;-81
2020/12/11 08:58:59;;;;;;;26.17;10.33;;;2.70;99.90;;;;;;5041398;28;20734;-80
2020/12/11 09:01:25;;;;;;;25.53;10.67;;;2.70;99.90;;;;;;5042943;28;20680;-81
2020/12/11 09:03:51;;;;;;;30.17;11.50;;;2.60;99.90;;;;;;5035900;28;20534;-80
2020/12/11 09:06:16;;;;;;;27.13;11.43;;;2.70;99.90;;;;;;5065198;28;20187;-81
2020/12/11 09:08:42;;;;;;;26.83;10.93;;;2.60;99.90;;;;;;5036844;28;20290;-81
2020/12/11 09:11:07;;;;;;;25.50;10.00;;;2.70;99.90;;;;;;5046974;28;20189;-82
2020/12/11 09:13:34;;;;;;;26.13;10.67;;;2.70;99.90;;;;;;5048425;28;20226;-81
2020/12/11 09:15:59;;;;;;;22.60;9.20;;;2.60;99.90;;;;;;5043543;28;20321;-81
2020/12/11 09:18:25;;;;;;;26.63;10.40;;;2.60;99.90;;;;;;5041679;28;20736;-81
2020/12/11 09:20:50;;;;;;;28.33;10.10;;;2.60;99.90;;;;;;5047257;28;20551;-81
2020/12/11 09:23:16;;;;;;;24.57;10.93;;;2.60;99.90;;;;;;5066286;28;20213;-80
2020/12/11 09:25:41;;;;;;;28.33;10.67;;;2.60;99.90;;;;;;5043056;28;20282;-82
2020/12/11 09:28:16;;;;;;;26.10;11.13;;;2.50;99.90;;;;;;5041304;28;20206;-80
2020/12/11 09:30:43;;;;;;;25.50;10.23;;;2.60;99.90;;;;;;5046410;28;20175;-81
2020/12/11 09:33:15;;;;;;;32.63;11.57;;;2.60;99.90;;;;;;5050819;28;20175;-81
2020/12/11 09:35:40;;;;;;;30.77;11.03;;;2.70;99.90;;;;;;5062834;28;20192;-81
2020/12/11 09:38:06;;;;;;;31.17;11.80;;;2.70;99.90;;;;;;5055939;28;20207;-81
2020/12/11 09:45:56;;;;;;;30.93;12.23;;;2.70;99.90;;;;;;5066702;28;20700;-80
2020/12/11 09:48:29;;;;;;;29.90;10.90;;;2.70;99.90;;;;;;5047231;28;20807;-81
2020/12/11 09:51:04;;;;;;;28.73;10.23;;;2.70;99.90;;;;;;5066003;28;20228;-80
2020/12/11 09:54:07;;;;;;;32.80;12.23;;;2.70;99.90;;;;;;5034940;28;20250;-79
2020/12/11 09:56:23;;;;;;;28.77;12.23;;;2.70;99.90;;;;;;5057198;28;20348;-80
2020/12/11 09:58:50;;;;;;;32.53;12.07;;;2.70;99.90;;;;;;5044697;28;20291;-81
2020/12/11 10:01:20;;;;;;;29.10;11.97;;;2.70;99.90;;;;;;5058688;28;20201;-79
2020/12/11 10:03:45;;;;;;;29.37;10.87;;;2.80;99.90;;;;;;5044017;28;20175;-79
2020/12/11 10:06:11;;;;;;;30.33;12.37;;;2.70;99.90;;;;;;5045008;28;20202;-81
2020/12/11 10:08:36;;;;;;;32.73;11.87;;;2.70;99.90;;;;;;5045185;28;20641;-81
2020/12/11 10:11:02;;;;;;;32.13;13.70;;;2.70;99.90;;;;;;5051635;28;20185;-79
2020/12/11 10:13:28;;;;;;;33.60;13.20;;;2.80;99.90;;;;;;5051021;28;20179;-81
2020/12/11 10:15:53;;;;;;;28.60;12.63;;;2.80;99.90;;;;;;5069572;28;20208;-80
2020/12/11 10:18:19;;;;;;;28.30;11.77;;;2.80;99.90;;;;;;5051062;28;20221;-80
2020/12/11 10:20:45;;;;;;;31.07;12.77;;;2.90;99.90;;;;;;5058305;28;20170;-80
2020/12/11 10:23:10;;;;;;;30.37;11.97;;;2.80;99.90;;;;;;5045485;28;20180;-80
2020/12/11 10:25:36;;;;;;;28.40;12.03;;;2.90;99.90;;;;;;5057164;28;20202;-79
2020/12/11 10:28:02;;;;;;;32.10;13.00;;;2.90;99.90;;;;;;5063376;28;20182;-79
2020/12/11 10:30:27;;;;;;;30.07;13.60;;;2.90;99.90;;;;;;5051371;28;20585;-81
2020/12/11 10:32:54;;;;;;;33.53;12.83;;;2.90;99.90;;;;;;5050605;28;20537;-80
2020/12/11 10:35:19;;;;;;;33.17;13.00;;;2.90;99.90;;;;;;5051713;28;20281;-81
2020/12/11 10:37:45;;;;;;;35.23;12.50;;;2.90;99.90;;;;;;5050133;28;20171;-79
2020/12/11 10:40:10;;;;;;;29.73;12.53;;;2.90;99.90;;;;;;5062244;28;20723;-80
2020/12/11 10:42:35;;;;;;;28.33;12.70;;;2.90;99.90;;;;;;5044984;28;20171;-79
2020/12/11 10:45:01;;;;;;;35.73;13.77;;;2.90;99.90;;;;;;5073942;28;20664;-80
2020/12/11 10:47:26;;;;;;;33.27;12.60;;;2.90;99.90;;;;;;5045866;28;20168;-80
2020/12/11 10:49:52;;;;;;;37.93;15.23;;;2.90;99.90;;;;;;5051184;28;20637;-80
2020/12/11 10:52:19;;;;;;;32.33;13.07;;;2.90;99.90;;;;;;5048149;28;20178;-80
2020/12/11 10:54:45;;;;;;;35.10;13.73;;;2.90;99.90;;;;;;5057987;28;20573;-80
2020/12/11 10:57:11;;;;;;;38.53;13.63;;;2.90;99.90;;;;;;5047690;28;20179;-80
2020/12/11 10:59:37;;;;;;;40.47;14.70;;;2.90;99.90;;;;;;5039992;28;20235;-81
2020/12/11 11:02:02;;;;;;;34.50;13.90;;;2.90;99.90;;;;;;5050891;28;20178;-81
2020/12/11 11:04:29;;;;;;;39.07;13.67;;;2.90;99.90;;;;;;5042842;28;20325;-79
2020/12/11 11:07:00;;;;;;;37.70;13.40;;;2.90;99.90;;;;;;5038737;28;20176;-80
2020/12/11 11:15:07;;;;;;;41.37;14.10;;;2.90;99.90;;;;;;5065177;28;20256;-80
2020/12/11 11:28:07;;;;;;;46.30;16.83;;;2.90;99.90;;;;;;5024852;28;20241;-79
2020/12/11 11:30:32;;;;;;;43.07;14.10;;;2.90;99.90;;;;;;5043490;28;20175;-82
2020/12/11 11:32:58;;;;;;;45.77;16.47;;;2.80;99.90;;;;;;5043817;28;20172;-79
2020/12/11 11:35:25;;;;;;;36.27;13.70;;;2.90;99.90;;;;;;5054451;28;20683;-79
2020/12/11 11:37:51;;;;;;;44.90;15.90;;;2.90;99.90;;;;;;5036942;28;20171;-78
2020/12/11 11:40:17;;;;;;;40.40;15.37;;;2.90;99.90;;;;;;5050232;28;20214;-81
2020/12/11 11:42:43;;;;;;;42.57;15.70;;;3.00;99.90;;;;;;5049799;28;20175;-80
2020/12/11 11:45:11;;;;;;;43.97;15.93;;;3.00;99.90;;;;;;5068306;28;20267;-81
2020/12/11 11:47:41;;;;;;;35.63;14.27;;;3.00;99.90;;;;;;5067883;28;20171;-79
2020/12/11 11:55:22;;;;;;;43.73;14.53;;;3.00;99.90;;;;;;5063666;28;20199;-80
2020/12/11 11:57:47;;;;;;;40.13;15.40;;;3.00;99.90;;;;;;5045127;28;20189;-81
2020/12/11 12:00:13;;;;;;;47.00;15.57;;;3.00;99.90;;;;;;5045671;28;20577;-81
2020/12/11 12:02:38;;;;;;;40.57;15.43;;;3.00;99.90;;;;;;5064182;28;20173;-79
2020/12/11 12:05:08;;;;;;;40.23;15.13;;;3.00;99.90;;;;;;5057076;28;20719;-80
2020/12/11 12:07:34;;;;;;;48.07;17.37;;;3.10;99.90;;;;;;5045673;28;20175;-81
2020/12/11 12:10:02;;;;;;;38.10;15.23;;;3.00;99.90;;;;;;5036107;28;20274;-80
2020/12/11 12:12:27;;;;;;;42.17;14.67;;;3.00;99.90;;;;;;5050235;28;20180;-80
2020/12/11 12:14:53;;;;;;;38.57;14.10;;;3.00;99.90;;;;;;5054965;28;20206;-81
2020/12/11 12:17:25;;;;;;;43.20;15.80;;;3.00;99.90;;;;;;5055671;28;20172;-80
2020/12/11 12:19:55;;;;;;;35.53;14.23;;;3.00;99.90;;;;;;5038382;28;20191;-80
2020/12/11 12:30:36;;;;;;;41.83;14.87;;;3.00;99.90;;;;;;5056312;28;20193;-81
2020/12/11 12:35:52;;;;;;;39.33;15.17;;;3.00;99.90;;;;;;5073516;28;20218;-80
2020/12/11 12:38:33;;;;;;;42.27;15.60;;;3.10;99.90;;;;;;5038829;28;20196;-80
2020/12/11 12:43:43;;;;;;;39.80;15.43;;;3.00;99.90;;;;;;5053961;28;20186;-81
2020/12/11 12:46:08;;;;;;;46.83;16.60;;;3.10;99.90;;;;;;5035543;28;20663;-81
2020/12/11 12:48:34;;;;;;;38.27;14.10;;;3.10;99.90;;;;;;5040088;28;20278;-81
2020/12/11 12:51:16;;;;;;;41.17;14.40;;;3.10;99.90;;;;;;5035461;28;20198;-81
2020/12/11 12:53:42;;;;;;;40.67;14.57;;;3.10;99.90;;;;;;5039848;28;20250;-79
2020/12/11 12:58:55;;;;;;;41.47;14.97;;;3.10;99.90;;;;;;5064842;28;20288;-80
2020/12/11 13:01:33;;;;;;;38.93;14.93;;;3.10;99.90;;;;;;5041052;28;20248;-82
2020/12/11 13:06:30;;;;;;;40.50;15.60;;;3.10;99.90;;;;;;5067573;28;20632;-84
2020/12/11 13:08:56;;;;;;;40.83;15.63;;;3.10;99.90;;;;;;5045886;28;20240;-80
2020/12/11 13:11:21;;;;;;;43.60;15.63;;;3.20;99.90;;;;;;5037276;28;20205;-80
2020/12/11 13:13:47;;;;;;;34.63;14.40;;;3.20;99.90;;;;;;5042985;28;20183;-80
2020/12/11 13:16:12;;;;;;;44.20;16.80;;;3.20;99.90;;;;;;5062969;28;20598;-81
2020/12/11 13:18:38;;;;;;;36.63;14.83;;;3.20;99.90;;;;;;5036017;28;20677;-83
2020/12/11 13:21:07;;;;;;;40.33;15.20;;;3.20;99.90;;;;;;5036725;28;20224;-81
2020/12/11 13:26:43;;;;;;;36.50;15.20;;;3.10;99.90;;;;;;5059746;28;20234;-81
2020/12/11 13:29:09;;;;;;;37.47;14.20;;;3.20;99.90;;;;;;5048173;28;20549;-81
2020/12/11 13:31:35;;;;;;;38.23;15.07;;;3.10;99.90;;;;;;5060716;28;20233;-82
2020/12/11 13:34:01;;;;;;;44.83;15.90;;;3.20;99.90;;;;;;5053011;28;20221;-80